CDT,Max TemperatureF,Mean TemperatureF,Min TemperatureF,Max Dew PointF,MeanDew PointF,Min DewpointF,Max Humidity, Mean Humidity, Min Humidity, Max Sea Level PressureIn, Mean Sea Level PressureIn, Min Sea Level PressureIn, Max VisibilityMiles, Mean VisibilityMiles, Min VisibilityMiles, Max Wind SpeedMPH, Mean Wind SpeedMPH, Max Gust SpeedMPH,PrecipitationIn, CloudCover, Events, WindDirDegrees
2012-8-1,111,92,73,58,54,46,57,30,12,29.90,29.83,29.78,10,10,10,12,7,20,0.00,0,,166
2012-8-2,112,92,72,57,52,47,56,27,12,29.81,29.72,29.63,10,10,10,18,9,24,0.00,0,,175
2012-8-3,111,92,74,58,52,46,47,25,12,29.81,29.71,29.64,10,10,10,22,11,32,0.00,0,,181
2012-8-4,109,92,76,61,57,52,56,31,16,29.91,29.82,29.74,10,10,10,20,11,26,0.00,0,,165
2012-8-5,102,88,76,64,62,56,61,43,27,30.13,30.05,29.95,10,10,10,22,14,29,0.00,0,,50
2012-8-6,105,92,79,63,60,57,52,36,21,30.06,29.98,29.88,10,10,10,14,8,,0.00,3,,131
2012-8-7,105,90,77,70,62,52,70,43,18,30.02,29.90,29.80,10,10,9,36,8,46,0.01,3,Rain-Thunderstorm,159
2012-8-8,100,86,73,74,67,60,99,61,28,30.02,29.93,29.84,10,10,6,20,13,26,0.20,2,Rain-Thunderstorm,326
2012-8-9,108,88,70,68,59,50,89,44,15,29.94,29.88,29.81,10,10,7,16,7,23,0.00,0,,6
2012-8-10,95,81,68,58,52,47,61,38,19,30.04,29.96,29.90,10,10,10,18,11,23,0.00,0,,33
2012-8-11,100,84,68,52,49,47,51,32,16,30.00,29.91,29.80,10,10,10,15,8,26,0.00,1,,124
2012-8-12,104,92,80,56,52,48,39,30,15,29.92,29.84,29.80,10,10,10,17,10,24,0.00,2,,74
2012-8-13,100,84,68,55,52,51,57,34,20,30.04,29.96,29.89,10,10,10,12,7,,0.00,0,,38
2012-8-14,101,84,69,72,62,50,99,57,26,29.94,29.84,29.73,10,9,4,25,10,34,0.13,4,Rain-Thunderstorm,108
2012-8-15,99,84,69,72,69,61,100,67,28,29.88,29.81,29.73,10,10,10,23,9,28,0.00,1,,146
2012-8-16,93,84,75,72,66,60,77,59,34,30.01,29.92,29.82,10,10,10,25,12,,0.00,2,Thunderstorm,169
2012-8-17,95,81,68,65,55,49,68,42,30,30.04,29.96,29.84,10,10,10,24,12,31,0.00,1,,63
2012-8-18,92,80,68,68,64,60,88,62,44,29.91,29.86,29.81,10,10,10,36,9,46,0.01,1,Thunderstorm,110
2012-8-19,92,78,63,66,53,40,100,52,17,30.00,29.95,29.90,10,10,10,18,5,24,0.00,1,,27
2012-8-20,93,78,65,61,49,46,69,38,21,30.04,29.97,29.84,10,10,10,13,6,,0.01,3,Rain-Thunderstorm,47
2012-8-21,83,74,66,68,66,61,100,87,48,30.08,30.03,29.97,10,10,5,13,5,17,0.10,5,Rain,173
2012-8-22,85,72,60,69,64,61,100,78,49,30.09,30.04,29.96,10,6,0,20,7,30,0.01,3,Fog,136
2012-8-23,91,81,71,66,64,61,82,57,43,30.00,29.92,29.83,10,10,10,22,13,29,0.00,5,,148
2012-8-24,91,80,69,70,68,62,100,73,45,29.88,29.82,29.72,10,10,10,22,12,30,0.06,5,Rain,148
2012-8-25,96,83,71,73,69,62,94,70,36,29.86,29.75,29.69,10,8,2,36,15,41,0.36,5,Rain-Thunderstorm,142
2012-8-26,91,81,71,72,70,65,100,82,43,30.01,29.93,29.86,10,10,6,10,5,,0.09,4,Rain-Thunderstorm,202
2012-8-27,97,83,69,74,67,59,100,67,29,30.08,30.03,29.97,10,10,10,18,4,24,0.00,1,,39
2012-8-28,97,82,68,67,59,42,88,54,16,30.08,30.00,29.92,10,10,10,16,10,25,0.00,0,,40
2012-8-29,97,78,60,57,50,40,85,43,15,30.00,29.93,29.83,10,10,10,14,8,20,0.00,0,,38
2012-8-30,98,78,60,61,52,46,76,42,18,29.91,29.85,29.77,10,10,10,14,7,24,0.00,0,,26
2012-8-31,99,84,70,60,56,50,63,40,20,29.92,29.87,29.83,10,10,10,8,6,,0.00,0,,302